New Albany, Kansas
Current Conditions -  °F | °C
As of 3:00 PM on Sunday 21 Dec 2014 (Local Time) from KCNU Reporting Station
Overcast Overcast  
Wind Chill: 40°   Ceiling: 1500
Heat Index: 46°   Visibility: 9mi
Dew Point: 42°   Wind: 15mph
Humidity: 86%   Direction: 170°S
Pressure: 29.85"   Gusts: NA
Location:  37.57°N, 95.94°W
Report Text: KCNU 212100Z AUTO 17013KT 9SM BKN015 BKN021 OVC033 08/06 A2985 RMK AO2 T00780056
Loading
Personal Weather Stations






























Interactive Weather Map New forecast layout! Learn more

10-Day Weather Forecast

Advertisements
Track Severe Weather on mobile